Time;durP1;ratioP1;P1;durP2;ratioP2;P2;SDS_P1;SDS_P2;PMS_P1;PMS_P2;Temp;Humidity;BMP_temperature;BMP_pressure;BME280_temperature;BME280_humidity;BME280_pressure;Samples;Min_cycle;Max_cycle;Signal;HPM_P1;HPM_P2
2023/05/11 00:00:29;;;;;;;12.90;9.07;;;12.80;99.90;;;;;;4994585;28;20049;-73
2023/05/11 00:02:54;;;;;;;14.60;9.63;;;12.80;99.90;;;;;;4993570;28;20046;-74
2023/05/11 00:05:20;;;;;;;15.20;9.65;;;12.70;99.90;;;;;;4993451;28;20053;-74
2023/05/11 00:07:46;;;;;;;14.18;9.38;;;12.70;99.90;;;;;;4994228;28;20047;-74
2023/05/11 00:10:11;;;;;;;12.65;8.98;;;12.70;99.90;;;;;;4993135;28;20043;-74
2023/05/11 00:12:37;;;;;;;14.38;9.68;;;12.70;99.90;;;;;;4992859;28;20046;-74
2023/05/11 00:15:03;;;;;;;12.50;9.40;;;12.70;99.90;;;;;;4993818;28;20081;-74
2023/05/11 00:17:29;;;;;;;13.30;9.32;;;12.70;99.90;;;;;;4993717;28;20086;-74
2023/05/11 00:19:54;;;;;;;13.77;8.80;;;12.70;99.90;;;;;;4993643;28;20081;-74
2023/05/11 00:22:20;;;;;;;13.05;9.10;;;12.70;99.90;;;;;;4993266;28;20046;-74
2023/05/11 00:24:46;;;;;;;13.00;8.57;;;12.60;99.90;;;;;;5005231;28;20046;-73
2023/05/11 00:27:11;;;;;;;14.82;9.18;;;12.60;99.90;;;;;;4992384;28;20108;-74
2023/05/11 00:29:37;;;;;;;13.98;9.63;;;12.60;99.90;;;;;;4993122;28;20092;-73
2023/05/11 00:32:03;;;;;;;14.18;9.60;;;12.60;99.90;;;;;;4992448;28;20050;-73
2023/05/11 00:34:28;;;;;;;14.63;9.02;;;12.60;99.90;;;;;;4993307;28;20122;-73
2023/05/11 00:36:54;;;;;;;14.73;9.07;;;12.60;99.90;;;;;;4993166;28;20549;-74
2023/05/11 00:39:20;;;;;;;13.77;8.52;;;12.60;99.90;;;;;;5011883;28;20103;-74
2023/05/11 00:41:46;;;;;;;13.00;9.25;;;12.60;99.90;;;;;;5006155;28;20046;-74
2023/05/11 00:44:12;;;;;;;15.55;9.88;;;12.60;99.90;;;;;;4992385;28;20589;-74
2023/05/11 00:46:38;;;;;;;14.48;9.07;;;12.60;99.90;;;;;;4975799;28;20046;-74
2023/05/11 00:49:04;;;;;;;13.80;9.23;;;12.60;99.90;;;;;;4993539;28;20104;-74
2023/05/11 00:51:31;;;;;;;13.10;9.20;;;12.60;99.90;;;;;;4993032;28;20046;-74
2023/05/11 00:53:58;;;;;;;13.40;9.02;;;12.50;99.90;;;;;;4993574;28;20081;-73
2023/05/11 00:56:23;;;;;;;10.15;7.30;;;12.50;99.90;;;;;;4991597;28;20042;-73
2023/05/11 00:58:50;;;;;;;15.00;9.80;;;12.50;99.90;;;;;;4992173;28;20116;-74
2023/05/11 01:01:17;;;;;;;16.13;9.85;;;12.50;99.90;;;;;;4993245;28;20038;-74
2023/05/11 01:03:43;;;;;;;16.73;9.80;;;12.50;99.90;;;;;;4993226;28;20042;-74
2023/05/11 01:06:24;;;;;;;16.42;10.00;;;12.50;99.90;;;;;;4993278;28;20046;-74
2023/05/11 01:09:02;;;;;;;17.67;10.20;;;12.50;99.90;;;;;;4992877;28;20050;-74
2023/05/11 01:11:40;;;;;;;17.33;9.80;;;12.50;99.90;;;;;;4993467;28;20048;-74
2023/05/11 01:14:17;;;;;;;15.82;9.30;;;12.50;99.90;;;;;;4992710;28;20053;-74
2023/05/11 01:16:48;;;;;;;15.13;9.55;;;12.50;99.90;;;;;;4992764;28;20394;-74
2023/05/11 01:19:41;;;;;;;19.50;10.27;;;12.50;99.90;;;;;;4993374;28;20108;-74
2023/05/11 01:22:32;;;;;;;16.35;9.48;;;12.50;99.90;;;;;;4992098;28;20475;-74
2023/05/11 01:25:28;;;;;;;16.80;10.90;;;12.40;99.90;;;;;;5009326;28;20058;-74
2023/05/11 01:28:09;;;;;;;18.02;10.20;;;12.40;99.90;;;;;;5012604;28;20060;-74
2023/05/11 01:30:50;;;;;;;17.25;10.30;;;12.40;99.90;;;;;;5010907;28;20091;-73
2023/05/11 01:33:25;;;;;;;20.08;10.38;;;12.40;99.90;;;;;;4992283;28;20050;-74
2023/05/11 01:35:54;;;;;;;17.67;10.77;;;12.40;99.90;;;;;;4993098;28;20092;-74
2023/05/11 01:38:23;;;;;;;18.65;10.45;;;12.40;99.90;;;;;;5002653;28;20468;-74
2023/05/11 01:40:54;;;;;;;22.05;12.02;;;12.30;99.90;;;;;;5001616;28;20190;-74
2023/05/11 01:43:22;;;;;;;20.17;11.45;;;12.30;99.90;;;;;;4992488;28;20050;-74
2023/05/11 01:45:51;;;;;;;19.25;11.68;;;12.40;99.90;;;;;;4993282;28;20061;-74
2023/05/11 01:48:26;;;;;;;20.85;11.90;;;12.30;99.90;;;;;;4992894;28;20164;-73
2023/05/11 01:50:54;;;;;;;18.38;11.63;;;12.30;99.90;;;;;;4991661;28;20046;-74
2023/05/11 01:53:21;;;;;;;20.45;12.15;;;12.30;99.90;;;;;;4993121;28;20057;-74
2023/05/11 01:55:48;;;;;;;21.10;11.55;;;12.30;99.90;;;;;;4992871;28;20043;-74
2023/05/11 01:58:17;;;;;;;19.63;11.70;;;12.30;99.90;;;;;;4991743;28;20493;-74
2023/05/11 02:00:44;;;;;;;19.17;11.57;;;12.30;99.90;;;;;;4976106;28;20159;-74
2023/05/11 02:03:11;;;;;;;20.80;11.63;;;12.30;99.90;;;;;;4992853;28;20092;-74
2023/05/11 02:05:39;;;;;;;21.45;12.00;;;12.30;99.90;;;;;;4992460;28;20122;-74
2023/05/11 02:08:06;;;;;;;21.08;11.77;;;12.30;99.90;;;;;;4992645;28;20048;-73
2023/05/11 02:10:33;;;;;;;23.30;13.15;;;12.30;99.90;;;;;;4992776;28;20045;-74
2023/05/11 02:13:01;;;;;;;23.90;12.77;;;12.30;99.90;;;;;;4990729;28;20514;-74
2023/05/11 02:15:27;;;;;;;23.17;13.30;;;12.30;99.90;;;;;;4992815;28;20058;-73
2023/05/11 02:17:54;;;;;;;19.67;12.10;;;12.30;99.90;;;;;;4991082;28;20101;-74
2023/05/11 02:20:23;;;;;;;24.83;13.80;;;12.20;99.90;;;;;;4992810;28;20046;-74
2023/05/11 02:22:50;;;;;;;23.58;12.88;;;12.30;99.90;;;;;;4992374;28;20050;-74
2023/05/11 02:25:17;;;;;;;21.75;12.90;;;12.20;99.90;;;;;;5011368;28;20042;-74
2023/05/11 02:27:43;;;;;;;23.17;13.85;;;12.20;99.90;;;;;;5012430;28;20050;-74
2023/05/11 02:30:09;;;;;;;24.05;14.25;;;12.20;99.90;;;;;;5015698;28;20082;-74
2023/05/11 02:32:40;;;;;;;25.83;14.90;;;12.20;99.90;;;;;;5002926;28;20046;-74
2023/05/11 02:35:15;;;;;;;24.98;13.50;;;12.20;99.90;;;;;;4996343;28;20085;-74
2023/05/11 02:37:45;;;;;;;23.25;13.60;;;12.20;99.90;;;;;;5000878;28;20580;-74
2023/05/11 02:40:17;;;;;;;21.45;12.40;;;12.10;99.90;;;;;;5004697;28;20402;-74
2023/05/11 02:42:45;;;;;;;24.08;13.25;;;12.10;99.90;;;;;;4995651;28;20494;-74
2023/05/11 02:45:14;;;;;;;24.23;12.85;;;12.10;99.90;;;;;;4994100;28;20050;-74
2023/05/11 02:47:55;;;;;;;23.27;12.52;;;12.10;99.90;;;;;;4996089;28;20038;-75
2023/05/11 02:50:23;;;;;;;20.48;11.68;;;12.10;99.90;;;;;;4995892;28;20043;-74
2023/05/11 02:52:52;;;;;;;17.80;10.73;;;12.00;99.90;;;;;;4995605;28;20053;-74
2023/05/11 02:55:19;;;;;;;17.67;10.10;;;12.00;99.90;;;;;;4995523;28;20121;-74
2023/05/11 02:57:45;;;;;;;16.08;8.70;;;12.00;99.90;;;;;;4995381;28;20403;-74
2023/05/11 03:00:12;;;;;;;14.05;8.68;;;11.90;99.90;;;;;;4994690;28;20176;-74
2023/05/11 03:02:37;;;;;;;15.82;9.18;;;11.90;99.90;;;;;;4995579;28;20046;-73
2023/05/11 03:05:04;;;;;;;14.20;8.77;;;11.80;99.90;;;;;;4978462;28;20057;-74
2023/05/11 03:07:31;;;;;;;15.52;9.50;;;11.80;99.90;;;;;;4994249;28;20038;-74
2023/05/11 03:09:57;;;;;;;17.50;9.32;;;11.80;99.90;;;;;;4994235;28;20050;-74
2023/05/11 03:12:23;;;;;;;15.27;8.45;;;11.80;99.90;;;;;;4995027;28;20129;-74
2023/05/11 03:14:49;;;;;;;14.70;8.32;;;11.80;99.90;;;;;;4994592;28;20038;-74
2023/05/11 03:17:16;;;;;;;13.18;8.38;;;11.80;99.90;;;;;;4993819;28;20054;-74
2023/05/11 03:19:43;;;;;;;15.45;8.50;;;11.80;99.90;;;;;;4994887;28;20499;-74
2023/05/11 03:22:09;;;;;;;13.32;8.55;;;11.90;99.90;;;;;;4995049;28;20100;-74
2023/05/11 03:24:36;;;;;;;15.52;8.63;;;11.90;99.90;;;;;;5007960;28;20073;-74
2023/05/11 03:27:04;;;;;;;16.65;9.18;;;11.80;99.90;;;;;;4995704;28;20046;-74
2023/05/11 03:29:33;;;;;;;16.75;9.38;;;11.90;99.90;;;;;;4994024;28;20038;-73
2023/05/11 03:31:59;;;;;;;13.63;8.18;;;11.80;99.90;;;;;;4994924;28;20046;-74
2023/05/11 03:34:24;;;;;;;17.52;9.40;;;11.80;99.90;;;;;;4995099;28;20061;-74
2023/05/11 03:36:51;;;;;;;15.50;9.05;;;11.80;99.90;;;;;;4977513;28;20058;-74
2023/05/11 03:39:19;;;;;;;16.15;9.68;;;11.80;99.90;;;;;;5005469;28;20073;-74
2023/05/11 03:41:49;;;;;;;18.08;10.65;;;11.80;99.90;;;;;;4993264;28;20108;-73
2023/05/11 03:44:19;;;;;;;17.25;9.90;;;11.80;99.90;;;;;;4994122;28;20108;-74
2023/05/11 03:46:49;;;;;;;16.05;9.30;;;11.80;99.90;;;;;;4994610;28;20043;-74
2023/05/11 03:49:16;;;;;;;17.13;9.77;;;11.70;99.90;;;;;;4994569;28;20048;-74
2023/05/11 03:51:43;;;;;;;14.52;9.02;;;11.70;99.90;;;;;;4994357;28;20042;-74
2023/05/11 03:54:09;;;;;;;16.52;9.32;;;11.70;99.90;;;;;;4993294;28;20053;-74
2023/05/11 03:56:38;;;;;;;15.98;9.50;;;11.80;99.90;;;;;;4993488;28;20046;-73
2023/05/11 03:59:05;;;;;;;14.38;9.07;;;11.80;99.90;;;;;;4994373;28;20062;-74
2023/05/11 04:01:34;;;;;;;15.43;9.38;;;11.70;99.90;;;;;;4992975;28;20078;-74
2023/05/11 04:04:00;;;;;;;14.93;8.75;;;11.70;99.90;;;;;;4992720;28;20042;-73
2023/05/11 04:06:25;;;;;;;14.18;8.85;;;11.80;99.90;;;;;;4991912;28;20506;-74
2023/05/11 04:08:51;;;;;;;15.50;8.82;;;11.80;99.90;;;;;;4993942;28;20058;-74
2023/05/11 04:11:17;;;;;;;14.50;8.32;;;11.80;99.90;;;;;;4994161;28;20048;-73
2023/05/11 04:13:42;;;;;;;13.18;8.15;;;11.80;99.90;;;;;;4993327;28;20391;-73
2023/05/11 04:16:08;;;;;;;13.05;8.40;;;11.80;99.90;;;;;;4993213;28;20360;-74
2023/05/11 04:18:34;;;;;;;11.55;7.43;;;11.80;99.90;;;;;;4993995;28;20065;-74
2023/05/11 04:21:00;;;;;;;12.35;7.63;;;11.80;99.90;;;;;;4993735;28;20573;-75
2023/05/11 04:23:25;;;;;;;14.15;7.30;;;11.80;99.90;;;;;;4997970;28;20089;-74
2023/05/11 04:25:55;;;;;;;12.35;8.05;;;11.80;99.90;;;;;;5013618;28;20054;-74
2023/05/11 04:28:22;;;;;;;12.60;7.90;;;11.80;99.90;;;;;;5012463;28;20133;-74
2023/05/11 04:30:57;;;;;;;11.32;7.40;;;11.80;99.90;;;;;;5013517;28;20045;-74
2023/05/11 04:33:23;;;;;;;13.90;7.75;;;11.80;99.90;;;;;;5013494;28;20489;-74
2023/05/11 04:35:50;;;;;;;15.38;8.27;;;11.80;99.90;;;;;;5013058;28;20042;-74
2023/05/11 04:38:17;;;;;;;11.90;8.13;;;11.80;99.90;;;;;;5003827;28;20129;-74
2023/05/11 04:40:42;;;;;;;15.63;8.57;;;11.70;99.90;;;;;;5004997;28;20096;-74
2023/05/11 04:43:08;;;;;;;13.13;8.15;;;11.80;99.90;;;;;;5012883;28;20041;-74
2023/05/11 04:45:34;;;;;;;15.63;9.05;;;11.80;99.90;;;;;;5004500;28;20043;-73
2023/05/11 04:47:59;;;;;;;14.63;8.15;;;11.80;99.90;;;;;;4993498;28;20052;-74
2023/05/11 04:50:25;;;;;;;12.45;7.95;;;11.80;99.90;;;;;;4993066;28;20085;-73
2023/05/11 04:52:51;;;;;;;16.20;9.13;;;11.80;99.90;;;;;;4993280;28;20544;-73
2023/05/11 04:55:16;;;;;;;15.52;8.70;;;11.80;99.90;;;;;;4993380;28;20046;-74
2023/05/11 04:57:42;;;;;;;24.17;10.73;;;11.80;99.90;;;;;;4993347;28;20154;-74
2023/05/11 05:00:08;;;;;;;16.90;8.90;;;11.80;99.90;;;;;;4992460;28;20043;-74
2023/05/11 05:02:34;;;;;;;16.55;9.48;;;11.80;99.90;;;;;;4993339;28;20557;-74
2023/05/11 05:05:00;;;;;;;14.77;8.55;;;11.90;99.90;;;;;;4992930;28;20299;-75
2023/05/11 05:07:26;;;;;;;15.57;8.25;;;11.90;99.90;;;;;;4993334;28;20511;-75
2023/05/11 05:09:52;;;;;;;16.60;9.43;;;11.90;99.90;;;;;;4993096;28;20035;-75
2023/05/11 05:12:17;;;;;;;17.88;9.43;;;12.00;99.90;;;;;;4992713;28;20049;-75
2023/05/11 05:14:43;;;;;;;15.55;8.60;;;12.00;99.90;;;;;;4992602;28;20046;-75
2023/05/11 05:17:09;;;;;;;17.30;9.55;;;12.00;99.90;;;;;;4992957;28;20054;-74
2023/05/11 05:19:35;;;;;;;17.65;9.40;;;12.00;99.90;;;;;;4991512;28;20121;-75
2023/05/11 05:22:00;;;;;;;16.92;8.73;;;12.10;99.90;;;;;;4993163;28;20521;-75
2023/05/11 05:24:26;;;;;;;17.40;9.27;;;12.10;99.90;;;;;;5004911;28;20576;-75
2023/05/11 05:26:52;;;;;;;17.10;9.25;;;12.10;99.90;;;;;;4993699;28;20054;-74
2023/05/11 05:29:17;;;;;;;18.50;9.23;;;12.20;99.90;;;;;;4993066;28;20046;-74
2023/05/11 05:31:43;;;;;;;18.17;9.70;;;12.20;99.90;;;;;;4993124;28;20093;-74
2023/05/11 05:34:09;;;;;;;15.75;8.70;;;12.20;99.90;;;;;;4992768;28;20042;-74
2023/05/11 05:36:34;;;;;;;13.70;8.05;;;12.20;99.90;;;;;;4992704;28;20046;-74
2023/05/11 05:39:02;;;;;;;14.45;8.95;;;12.30;99.90;;;;;;4996584;28;20054;-75
2023/05/11 05:41:28;;;;;;;15.60;8.80;;;12.30;99.90;;;;;;4991762;28;20057;-74
2023/05/11 05:43:54;;;;;;;15.05;8.35;;;12.30;99.90;;;;;;4991531;28;20046;-74
2023/05/11 05:46:19;;;;;;;16.35;9.50;;;12.30;99.90;;;;;;4993687;28;20050;-75
2023/05/11 05:48:45;;;;;;;18.23;9.40;;;12.40;99.90;;;;;;4992453;28;20471;-75
2023/05/11 05:51:11;;;;;;;17.83;9.70;;;12.40;99.90;;;;;;4991666;28;20046;-75
2023/05/11 05:53:37;;;;;;;16.42;9.02;;;12.40;99.90;;;;;;4993114;28;20046;-74
2023/05/11 05:56:02;;;;;;;17.25;9.75;;;12.50;99.90;;;;;;4992654;28;20074;-75
2023/05/11 05:58:28;;;;;;;18.10;10.05;;;12.50;99.90;;;;;;4992907;28;20054;-75
2023/05/11 06:00:54;;;;;;;16.20;9.25;;;12.60;99.90;;;;;;4990982;28;20058;-75
2023/05/11 06:03:20;;;;;;;17.33;9.43;;;12.60;99.90;;;;;;4993790;28;20675;-75
2023/05/11 06:05:46;;;;;;;17.25;9.35;;;12.70;99.90;;;;;;4996641;28;20104;-75
2023/05/11 06:08:11;;;;;;;18.13;10.43;;;12.70;99.90;;;;;;4996269;28;20530;-75
2023/05/11 06:10:37;;;;;;;15.82;9.65;;;12.80;99.90;;;;;;4996151;28;20046;-75
2023/05/11 06:13:03;;;;;;;15.73;8.45;;;12.80;99.90;;;;;;4996543;28;20394;-74
2023/05/11 06:15:29;;;;;;;16.08;9.00;;;12.80;99.90;;;;;;4995459;28;20045;-70
2023/05/11 06:17:54;;;;;;;16.70;9.13;;;12.80;99.90;;;;;;4995910;28;20050;-70
2023/05/11 06:20:20;;;;;;;16.63;8.43;;;12.70;99.90;;;;;;4995235;28;20046;-70
2023/05/11 06:22:46;;;;;;;14.05;8.52;;;12.80;99.90;;;;;;4996663;28;20483;-70
2023/05/11 06:25:11;;;;;;;14.82;8.70;;;12.80;99.90;;;;;;5013619;28;20124;-71
2023/05/11 06:27:37;;;;;;;15.15;8.80;;;12.80;99.90;;;;;;5001444;28;20050;-71
2023/05/11 06:30:03;;;;;;;14.43;7.75;;;12.90;99.90;;;;;;4995796;28;20140;-70
2023/05/11 06:32:29;;;;;;;14.52;8.65;;;12.90;99.90;;;;;;4995470;28;20100;-70
2023/05/11 06:34:55;;;;;;;14.98;8.82;;;12.90;99.90;;;;;;4995510;28;20078;-70
2023/05/11 06:37:20;;;;;;;15.32;8.95;;;13.00;99.90;;;;;;4997432;28;20046;-71
2023/05/11 06:39:49;;;;;;;16.00;9.55;;;13.00;99.90;;;;;;5009282;28;20039;-69
2023/05/11 06:42:15;;;;;;;13.75;8.95;;;12.90;99.90;;;;;;4995882;28;20062;-71
2023/05/11 06:44:40;;;;;;;16.55;9.32;;;12.90;99.90;;;;;;4995208;28;20116;-70
2023/05/11 06:47:07;;;;;;;14.35;8.70;;;12.90;99.90;;;;;;4995427;28;20057;-70
2023/05/11 06:49:33;;;;;;;15.98;9.68;;;12.90;99.90;;;;;;4995266;28;20642;-70
2023/05/11 06:51:59;;;;;;;15.55;8.85;;;12.90;99.90;;;;;;4994635;28;20508;-70
2023/05/11 06:54:24;;;;;;;13.18;8.30;;;12.90;99.90;;;;;;4994948;28;20054;-70
2023/05/11 06:56:50;;;;;;;17.10;9.63;;;12.90;99.90;;;;;;4995796;28;20054;-70
2023/05/11 06:59:16;;;;;;;16.60;10.48;;;13.00;99.90;;;;;;4995660;28;20090;-70
2023/05/11 07:01:42;;;;;;;18.80;9.98;;;13.00;99.90;;;;;;4995044;28;20042;-69
2023/05/11 07:04:07;;;;;;;17.70;9.68;;;13.10;99.90;;;;;;4995440;28;20042;-69
2023/05/11 07:06:33;;;;;;;16.40;9.00;;;13.20;99.90;;;;;;4994418;28;20058;-69
2023/05/11 07:08:59;;;;;;;17.23;9.65;;;13.20;99.90;;;;;;4995162;28;20129;-69
2023/05/11 07:11:25;;;;;;;16.13;10.15;;;13.30;99.90;;;;;;4995009;28;20050;-73
2023/05/11 07:13:50;;;;;;;16.40;9.75;;;13.40;99.90;;;;;;4997408;28;20057;-74
2023/05/11 07:16:16;;;;;;;13.63;9.10;;;13.50;99.90;;;;;;5010475;28;20553;-74
2023/05/11 07:18:42;;;;;;;16.33;9.05;;;13.60;99.90;;;;;;5003221;28;20058;-74
2023/05/11 07:21:08;;;;;;;15.10;9.43;;;13.80;99.90;;;;;;5003230;28;20056;-75
2023/05/11 07:23:33;;;;;;;15.95;9.30;;;13.80;99.90;;;;;;5000842;28;20042;-75
2023/05/11 07:26:00;;;;;;;17.48;9.60;;;13.90;99.90;;;;;;4994648;28;20042;-76
2023/05/11 07:28:26;;;;;;;16.88;9.27;;;13.90;99.90;;;;;;4994431;28;20046;-76
2023/05/11 07:30:52;;;;;;;16.45;9.40;;;13.90;99.90;;;;;;5001339;28;20410;-74
2023/05/11 07:33:17;;;;;;;16.65;9.25;;;13.90;99.90;;;;;;5009638;28;20121;-74
2023/05/11 07:35:43;;;;;;;13.88;8.90;;;14.00;99.90;;;;;;5013586;28;20041;-74
2023/05/11 07:38:10;;;;;;;13.98;9.25;;;14.00;99.90;;;;;;5013804;28;20077;-74
2023/05/11 07:40:36;;;;;;;13.90;9.32;;;14.00;99.90;;;;;;5013749;28;20184;-74
2023/05/11 07:43:02;;;;;;;17.00;9.38;;;14.00;99.90;;;;;;5012231;28;20125;-73
2023/05/11 07:45:27;;;;;;;15.60;9.73;;;13.90;99.90;;;;;;5012869;28;20144;-74
2023/05/11 07:47:53;;;;;;;16.00;10.18;;;13.90;99.90;;;;;;5013674;28;20505;-74
2023/05/11 07:50:19;;;;;;;17.40;10.27;;;13.90;99.90;;;;;;5004328;28;20064;-75
2023/05/11 07:52:44;;;;;;;14.90;9.55;;;13.80;99.90;;;;;;5013957;28;20056;-75
2023/05/11 07:55:10;;;;;;;15.70;9.27;;;13.80;99.90;;;;;;5013055;28;20580;-74
2023/05/11 07:57:36;;;;;;;16.58;10.35;;;13.70;99.90;;;;;;5013175;28;20050;-75
2023/05/11 08:00:02;;;;;;;15.82;9.45;;;13.60;99.90;;;;;;5008413;28;20045;-74
2023/05/11 08:02:28;;;;;;;15.65;9.60;;;13.60;99.90;;;;;;5013251;28;20457;-74
2023/05/11 08:04:54;;;;;;;18.42;10.93;;;13.60;99.90;;;;;;5013293;28;20077;-75
2023/05/11 08:07:19;;;;;;;15.63;9.63;;;13.60;99.90;;;;;;5018432;28;20092;-74
2023/05/11 08:09:45;;;;;;;15.98;9.70;;;13.60;99.90;;;;;;5014068;28;20037;-76
2023/05/11 08:12:11;;;;;;;14.73;8.80;;;13.60;99.90;;;;;;5013269;28;20053;-76
2023/05/11 08:14:37;;;;;;;15.55;9.60;;;13.60;99.90;;;;;;5011506;28;20108;-76
2023/05/11 08:17:02;;;;;;;14.77;9.43;;;13.60;99.90;;;;;;5013576;28;20096;-76
2023/05/11 08:19:28;;;;;;;14.45;8.70;;;13.60;99.90;;;;;;5012490;28;20077;-76
2023/05/11 08:21:54;;;;;;;19.25;10.07;;;13.60;99.90;;;;;;5013041;28;20053;-76
2023/05/11 08:24:19;;;;;;;15.82;9.95;;;13.60;99.90;;;;;;5004747;28;20050;-73
2023/05/11 08:26:46;;;;;;;16.05;9.73;;;13.60;99.90;;;;;;5012800;28;20049;-73
2023/05/11 08:29:11;;;;;;;14.38;9.30;;;13.60;99.90;;;;;;5011673;28;20049;-73
2023/05/11 08:31:38;;;;;;;15.57;9.23;;;13.60;99.90;;;;;;5012203;28;20037;-74
2023/05/11 08:34:07;;;;;;;14.85;9.60;;;13.50;99.90;;;;;;5011856;28;20410;-74
2023/05/11 08:36:33;;;;;;;16.52;10.27;;;13.50;99.90;;;;;;5012667;28;20050;-73
2023/05/11 08:38:59;;;;;;;15.10;9.88;;;13.60;99.90;;;;;;5009346;28;20042;-73
2023/05/11 08:41:25;;;;;;;15.50;9.50;;;13.60;99.90;;;;;;5011284;28;20049;-74
2023/05/11 08:43:51;;;;;;;16.35;9.90;;;13.60;99.90;;;;;;5009582;28;20050;-73
2023/05/11 08:46:21;;;;;;;13.63;9.25;;;13.60;99.90;;;;;;5011408;28;20395;-73
2023/05/11 08:48:47;;;;;;;16.10;9.82;;;13.70;99.90;;;;;;5004037;28;20049;-73
2023/05/11 08:51:13;;;;;;;16.27;9.65;;;13.70;99.90;;;;;;5012762;28;20049;-73
2023/05/11 08:53:39;;;;;;;17.77;10.57;;;13.60;99.90;;;;;;5011060;28;20490;-74
2023/05/11 08:56:07;;;;;;;14.57;9.40;;;13.60;99.90;;;;;;5012385;28;20053;-73
2023/05/11 08:58:36;;;;;;;13.85;8.68;;;13.60;99.90;;;;;;5011252;28;20081;-73
2023/05/11 09:01:04;;;;;;;12.73;8.13;;;13.60;99.90;;;;;;5012337;28;20042;-78
2023/05/11 09:03:33;;;;;;;13.88;8.00;;;13.60;99.90;;;;;;5011949;28;20426;-74
2023/05/11 09:05:59;;;;;;;10.93;6.88;;;13.50;99.90;;;;;;5012827;28;20050;-75
2023/05/11 09:08:29;;;;;;;10.68;7.05;;;13.50;99.90;;;;;;5018637;28;20046;-73
2023/05/11 09:10:55;;;;;;;12.77;7.25;;;13.50;99.90;;;;;;5009570;28;20125;-74
2023/05/11 09:13:23;;;;;;;9.48;5.93;;;13.40;99.90;;;;;;5011556;28;20100;-74
2023/05/11 09:15:48;;;;;;;10.70;5.57;;;13.40;99.90;;;;;;5013380;28;20117;-73
2023/05/11 09:18:14;;;;;;;10.55;5.38;;;13.30;99.90;;;;;;5014415;28;20366;-74
2023/05/11 09:20:42;;;;;;;9.02;5.28;;;13.30;99.90;;;;;;5014387;28;20055;-73
2023/05/11 09:23:08;;;;;;;9.63;5.32;;;13.30;99.90;;;;;;5011549;28;20413;-73
2023/05/11 09:25:37;;;;;;;9.35;5.55;;;13.30;99.90;;;;;;5005164;28;20120;-73
2023/05/11 09:28:03;;;;;;;10.15;6.03;;;13.30;99.90;;;;;;5007764;28;20037;-73
2023/05/11 09:30:29;;;;;;;11.02;6.53;;;13.30;99.90;;;;;;5009693;28;20044;-79
2023/05/11 09:32:59;;;;;;;10.10;5.85;;;13.30;99.90;;;;;;5009283;28;20115;-73
2023/05/11 09:35:29;;;;;;;10.05;5.43;;;13.40;99.90;;;;;;5011028;28;20057;-73
2023/05/11 09:38:01;;;;;;;9.68;5.05;;;13.30;99.90;;;;;;5011448;28;20050;-73
2023/05/11 09:40:27;;;;;;;8.55;5.10;;;13.30;99.90;;;;;;5008702;28;20085;-73
2023/05/11 09:42:53;;;;;;;9.45;5.25;;;13.20;99.90;;;;;;5015332;28;20042;-73
2023/05/11 09:45:35;;;;;;;10.43;5.95;;;13.20;99.90;;;;;;5012883;28;20398;-72
2023/05/11 09:48:02;;;;;;;8.40;4.97;;;13.30;99.90;;;;;;5014217;28;20736;-72
2023/05/11 09:50:35;;;;;;;8.40;4.93;;;13.30;99.90;;;;;;5014639;28;20034;-72
2023/05/11 09:53:01;;;;;;;7.22;4.40;;;13.30;99.90;;;;;;5012172;28;20050;-72
2023/05/11 09:55:27;;;;;;;7.75;4.10;;;13.20;99.90;;;;;;5015603;28;20405;-72
2023/05/11 09:57:57;;;;;;;7.00;4.10;;;13.20;99.90;;;;;;5016078;28;20046;-71
2023/05/11 10:00:26;;;;;;;8.60;4.15;;;13.10;99.90;;;;;;5015958;28;20065;-72
2023/05/11 10:03:02;;;;;;;7.32;3.65;;;13.10;99.90;;;;;;5016041;28;20128;-75
2023/05/11 10:05:30;;;;;;;8.45;4.03;;;13.10;99.90;;;;;;5012501;28;20556;-73
2023/05/11 10:08:00;;;;;;;6.78;4.47;;;13.10;99.90;;;;;;5015813;28;20052;-72
2023/05/11 10:10:28;;;;;;;6.47;4.18;;;13.00;99.90;;;;;;5014318;28;20048;-71
2023/05/11 10:12:59;;;;;;;9.45;4.97;;;13.00;99.90;;;;;;5014445;28;20433;-72
2023/05/11 10:15:27;;;;;;;9.43;4.88;;;13.10;99.90;;;;;;5009836;28;20478;-72
2023/05/11 10:17:54;;;;;;;10.25;5.68;;;13.10;99.90;;;;;;5013538;28;20379;-72
2023/05/11 10:20:21;;;;;;;8.95;5.03;;;13.10;99.90;;;;;;5011105;28;20050;-72
2023/05/11 10:22:49;;;;;;;10.75;5.38;;;13.10;99.90;;;;;;5015506;28;20052;-72
2023/05/11 10:25:15;;;;;;;10.75;5.43;;;13.20;99.90;;;;;;5015193;28;20054;-71
2023/05/11 10:27:41;;;;;;;12.68;6.20;;;13.10;99.90;;;;;;5013952;28;20120;-73
2023/05/11 10:30:09;;;;;;;9.90;5.82;;;13.20;99.90;;;;;;5006911;28;20475;-72
2023/05/11 10:32:36;;;;;;;9.85;5.97;;;13.20;99.90;;;;;;5014016;28;20041;-72
2023/05/11 10:35:03;;;;;;;12.98;6.70;;;13.30;99.90;;;;;;5006502;28;20108;-72
2023/05/11 10:37:29;;;;;;;16.20;8.02;;;13.40;99.90;;;;;;5010723;28;20049;-72
2023/05/11 10:39:56;;;;;;;13.77;7.53;;;13.50;99.90;;;;;;5012680;28;20042;-72
2023/05/11 10:42:41;;;;;;;14.50;7.72;;;13.50;99.90;;;;;;5022032;28;20535;-72
2023/05/11 10:45:25;;;;;;;14.82;8.27;;;13.60;99.90;;;;;;5006207;28;20050;-72
2023/05/11 10:48:08;;;;;;;15.00;8.10;;;13.60;99.90;;;;;;5013865;28;20204;-72
2023/05/11 10:50:59;;;;;;;13.95;8.40;;;13.60;99.90;;;;;;5009714;28;20597;-72
2023/05/11 10:53:45;;;;;;;17.90;8.68;;;13.70;99.90;;;;;;5013294;28;20042;-72
2023/05/11 10:56:41;;;;;;;14.65;8.95;;;13.70;99.90;;;;;;5013720;28;20062;-72
2023/05/11 10:59:44;;;;;;;14.32;9.05;;;13.80;99.90;;;;;;5013180;28;20111;-72
2023/05/11 11:02:10;;;;;;;15.43;8.57;;;13.80;99.90;;;;;;5013778;28;20049;-72
2023/05/11 11:04:47;;;;;;;14.25;8.60;;;13.80;99.90;;;;;;5011362;28;20045;-72
2023/05/11 11:07:17;;;;;;;15.50;8.77;;;13.80;99.90;;;;;;5018324;28;20037;-73
2023/05/11 11:10:00;;;;;;;15.98;9.18;;;13.80;99.90;;;;;;5013046;28;20609;-75
2023/05/11 11:12:28;;;;;;;16.35;8.70;;;13.90;99.90;;;;;;5004322;28;20120;-75
2023/05/11 11:15:03;;;;;;;16.67;9.82;;;14.00;99.90;;;;;;5011774;28;20042;-75
2023/05/11 11:17:31;;;;;;;15.90;9.30;;;14.20;99.90;;;;;;5013148;28;20066;-74
2023/05/11 11:20:07;;;;;;;16.48;9.75;;;14.40;99.90;;;;;;5012539;28;20042;-73
2023/05/11 11:22:39;;;;;;;;;;;14.60;99.90;;;;;;5014630;28;20049;-73
2023/05/11 11:25:07;;;;;;;15.40;9.63;;;15.00;99.90;;;;;;5010861;28;20364;-73
2023/05/11 11:27:39;;;;;;;16.55;10.70;;;15.60;99.90;;;;;;5013994;28;20037;-74
2023/05/11 11:30:27;;;;;;;15.07;9.48;;;16.30;99.90;;;;;;5028638;28;20080;-74
2023/05/11 11:33:08;;;;;;;12.52;8.23;;;16.80;99.90;;;;;;5013508;28;20073;-74
2023/05/11 11:35:42;;;;;;;11.38;7.18;;;17.20;99.90;;;;;;5013974;28;20041;-74
2023/05/11 11:38:17;;;;;;;10.90;7.07;;;17.40;99.90;;;;;;5013572;28;20042;-74
2023/05/11 11:40:53;;;;;;;11.68;7.38;;;17.50;99.90;;;;;;5014439;28;20042;-75
2023/05/11 11:43:20;;;;;;;;;;;17.60;99.90;;;;;;5013543;28;20121;-76
2023/05/11 11:46:04;;;;;;;8.82;6.93;;;17.50;99.90;;;;;;5013430;28;19921;-75
2023/05/11 11:48:29;;;;;;;9.63;6.65;;;17.40;99.90;;;;;;5005251;28;20125;-73
2023/05/11 11:51:09;;;;;;;8.95;6.30;;;17.40;99.90;;;;;;5010201;28;20129;-75
2023/05/11 11:53:40;;;;;;;8.98;6.10;;;17.30;99.90;;;;;;5013423;28;20050;-74
2023/05/11 11:56:29;;;;;;;9.23;6.18;;;17.20;99.90;;;;;;5011901;28;20515;-74
2023/05/11 11:58:56;;;;;;;9.30;6.30;;;17.10;99.90;;;;;;5009564;28;20058;-74
2023/05/11 12:01:25;;;;;;;9.05;6.15;;;17.10;99.90;;;;;;5010390;28;20111;-75
2023/05/11 12:04:03;;;;;;;8.82;5.97;;;17.00;99.90;;;;;;5004216;28;20141;-75
2023/05/11 12:06:38;;;;;;;9.02;6.35;;;17.00;99.90;;;;;;5011664;28;20119;-73
2023/05/11 12:09:04;;;;;;;9.18;6.03;;;16.90;99.90;;;;;;5004351;28;20053;-74
2023/05/11 12:11:32;;;;;;;9.57;5.85;;;16.80;99.90;;;;;;4993686;28;20455;-74
2023/05/11 12:13:59;;;;;;;7.55;5.50;;;16.80;99.90;;;;;;4993076;28;20061;-74
2023/05/11 12:16:27;;;;;;;8.57;5.55;;;16.70;99.90;;;;;;4998963;28;20410;-74
2023/05/11 12:18:58;;;;;;;8.65;5.70;;;16.50;99.90;;;;;;5006326;28;20127;-74
2023/05/11 12:21:26;;;;;;;8.52;5.78;;;16.30;99.90;;;;;;4994157;28;20050;-75
2023/05/11 12:23:53;;;;;;;7.88;5.80;;;16.10;99.90;;;;;;5000459;28;20597;-75
2023/05/11 12:26:20;;;;;;;8.68;6.22;;;16.00;99.90;;;;;;5011984;28;20050;-76
2023/05/11 12:28:49;;;;;;;9.02;5.97;;;15.90;99.90;;;;;;5011636;28;20038;-75
2023/05/11 12:31:16;;;;;;;9.07;6.00;;;15.90;99.90;;;;;;5013912;28;20046;-74
2023/05/11 12:33:49;;;;;;;7.68;5.30;;;16.00;99.90;;;;;;4998742;28;20073;-75
2023/05/11 12:36:16;;;;;;;8.43;5.72;;;16.10;99.90;;;;;;4993739;28;20046;-76
2023/05/11 12:38:43;;;;;;;7.90;5.55;;;16.20;99.90;;;;;;5006148;28;20049;-75
2023/05/11 12:41:10;;;;;;;7.65;4.75;;;16.30;99.90;;;;;;5013267;28;20056;-75
2023/05/11 12:43:36;;;;;;;5.93;4.38;;;16.30;99.90;;;;;;5011580;28;20073;-75